Time;durP1;ratioP1;P1;durP2;ratioP2;P2;SDS_P1;SDS_P2;PMS_P1;PMS_P2;Temp;Humidity;BMP_temperature;BMP_pressure;BME280_temperature;BME280_humidity;BME280_pressure;Samples;Min_cycle;Max_cycle;Signal;HPM_P1;HPM_P2
2022/03/10 00:01:04;;;;;;;43.92;24.20;;;2.90;61.10;;;;;;4988723;28;20229;-79
2022/03/10 00:03:32;;;;;;;35.15;20.55;;;2.80;61.20;;;;;;4998261;28;20211;-81
2022/03/10 00:06:00;;;;;;;35.85;20.17;;;2.80;61.30;;;;;;4984118;28;20223;-81
2022/03/10 00:08:28;;;;;;;33.05;21.95;;;2.80;61.30;;;;;;4984822;28;20218;-81
2022/03/10 00:10:58;;;;;;;32.58;20.65;;;2.70;61.30;;;;;;4991574;28;20281;-83
2022/03/10 00:13:29;;;;;;;42.22;25.15;;;2.70;61.40;;;;;;4988068;28;20203;-82
2022/03/10 00:15:59;;;;;;;36.42;21.75;;;2.70;61.60;;;;;;4987424;28;20225;-81
2022/03/10 00:18:27;;;;;;;37.78;21.92;;;2.70;61.70;;;;;;4984407;28;20203;-81
2022/03/10 00:20:55;;;;;;;41.45;24.95;;;2.70;61.80;;;;;;4986635;28;20269;-81
2022/03/10 00:23:23;;;;;;;42.75;24.45;;;2.70;61.70;;;;;;5000056;28;20210;-83
2022/03/10 00:25:51;;;;;;;35.72;22.10;;;2.70;61.70;;;;;;4988337;28;20195;-81
2022/03/10 00:28:20;;;;;;;37.42;22.13;;;2.70;61.70;;;;;;4997774;28;20651;-83
2022/03/10 00:30:48;;;;;;;54.78;29.88;;;2.70;61.80;;;;;;4984126;28;20234;-82
2022/03/10 00:33:16;;;;;;;39.72;23.77;;;2.60;61.70;;;;;;4981823;28;20215;-81
2022/03/10 00:35:48;;;;;;;31.55;20.95;;;2.60;61.70;;;;;;4985801;28;20705;-82
2022/03/10 00:38:17;;;;;;;40.10;23.45;;;2.50;61.80;;;;;;4989771;28;20210;-82
2022/03/10 00:40:45;;;;;;;36.30;22.33;;;2.50;61.80;;;;;;5002308;28;20222;-82
2022/03/10 00:43:14;;;;;;;34.70;21.83;;;2.40;61.90;;;;;;4999774;28;20199;-82
2022/03/10 00:45:53;;;;;;;41.15;23.65;;;2.40;62.00;;;;;;5001965;28;20230;-82
2022/03/10 00:48:22;;;;;;;32.15;20.58;;;2.40;62.00;;;;;;4985852;28;20203;-82
2022/03/10 00:50:50;;;;;;;62.28;31.05;;;2.40;62.00;;;;;;4985920;28;20226;-81
2022/03/10 00:53:18;;;;;;;51.20;29.73;;;2.30;62.00;;;;;;4985110;28;20378;-81
2022/03/10 00:55:47;;;;;;;41.60;23.15;;;2.20;61.90;;;;;;4985702;28;20690;-81
2022/03/10 00:58:15;;;;;;;37.15;21.70;;;2.10;61.90;;;;;;4989944;28;20202;-80
2022/03/10 01:00:43;;;;;;;37.72;22.48;;;2.10;62.10;;;;;;5001987;28;20820;-81
2022/03/10 01:03:13;;;;;;;37.85;21.08;;;2.00;62.20;;;;;;4987408;28;20684;-81
2022/03/10 01:05:42;;;;;;;31.52;18.33;;;1.90;62.40;;;;;;4990492;28;20214;-80
2022/03/10 01:08:12;;;;;;;26.95;16.40;;;1.90;62.60;;;;;;4988872;28;20202;-82
2022/03/10 01:10:40;;;;;;;31.90;18.65;;;2.00;62.70;;;;;;5003540;28;20245;-82
2022/03/10 01:13:13;;;;;;;30.23;17.67;;;2.00;62.80;;;;;;4988287;28;20221;-82
2022/03/10 01:15:42;;;;;;;31.42;18.85;;;2.10;62.80;;;;;;5002528;28;20234;-80
2022/03/10 01:18:11;;;;;;;39.28;23.30;;;2.10;62.80;;;;;;5002292;28;20327;-79
2022/03/10 01:20:40;;;;;;;33.30;21.67;;;2.10;62.70;;;;;;5000562;28;20904;-79
2022/03/10 01:23:10;;;;;;;40.13;21.55;;;2.00;62.60;;;;;;4984315;28;20574;-78
2022/03/10 01:25:38;;;;;;;41.88;23.92;;;2.00;62.60;;;;;;4986885;28;20199;-78
2022/03/10 01:28:06;;;;;;;37.70;24.05;;;1.90;62.70;;;;;;4987535;28;20765;-78
2022/03/10 01:30:34;;;;;;;55.10;29.55;;;2.00;62.80;;;;;;4986726;28;20249;-81
2022/03/10 01:33:02;;;;;;;49.72;26.35;;;2.00;62.80;;;;;;4986798;28;20219;-82
2022/03/10 01:35:33;;;;;;;53.58;28.08;;;1.90;62.80;;;;;;4986877;28;21040;-81
2022/03/10 01:38:02;;;;;;;46.67;21.65;;;1.90;62.80;;;;;;4987667;28;20213;-81
2022/03/10 01:40:30;;;;;;;37.58;21.25;;;1.90;62.80;;;;;;5000312;28;20724;-80
2022/03/10 01:42:58;;;;;;;40.50;24.00;;;1.90;62.90;;;;;;5001211;28;20680;-79
2022/03/10 01:45:28;;;;;;;39.15;23.08;;;1.80;62.90;;;;;;4998214;28;20295;-80
2022/03/10 01:47:56;;;;;;;34.72;20.50;;;1.80;63.00;;;;;;5001462;28;20297;-80
2022/03/10 01:50:24;;;;;;;46.97;25.08;;;1.90;63.10;;;;;;4986890;28;20302;-81
2022/03/10 01:52:52;;;;;;;41.80;23.40;;;1.90;63.10;;;;;;4985885;28;20210;-80
2022/03/10 01:55:22;;;;;;;42.25;23.73;;;1.90;63.10;;;;;;4987184;28;21008;-81
2022/03/10 01:57:50;;;;;;;41.97;21.90;;;1.80;63.00;;;;;;4986772;28;20240;-81
2022/03/10 02:00:18;;;;;;;43.22;23.15;;;1.80;63.00;;;;;;4986448;28;20320;-81
2022/03/10 02:02:48;;;;;;;35.03;19.80;;;1.80;63.00;;;;;;4985719;28;21013;-81
2022/03/10 02:05:17;;;;;;;38.25;22.35;;;1.70;63.00;;;;;;4985417;28;20805;-80
2022/03/10 02:10:34;;;;;;;41.75;21.73;;;1.50;63.10;;;;;;4993043;28;21016;-79
2022/03/10 02:13:02;;;;;;;38.72;20.50;;;1.40;63.00;;;;;;5000525;28;20222;-79
2022/03/10 02:18:19;;;;;;;37.08;20.90;;;1.20;63.20;;;;;;4987648;28;20207;-79
2022/03/10 02:20:47;;;;;;;42.20;23.45;;;1.20;63.30;;;;;;5001434;28;20273;-79
2022/03/10 02:23:17;;;;;;;40.65;22.15;;;1.20;63.50;;;;;;4983005;28;20226;-79
2022/03/10 02:25:46;;;;;;;45.20;24.50;;;1.20;63.60;;;;;;4984563;28;20206;-78
2022/03/10 02:28:16;;;;;;;40.15;22.48;;;1.20;63.70;;;;;;4999865;28;20256;-80
2022/03/10 02:30:45;;;;;;;50.30;26.40;;;1.20;63.70;;;;;;4985322;28;20333;-80
2022/03/10 02:33:13;;;;;;;61.88;32.20;;;1.20;63.70;;;;;;4985610;28;20214;-79
2022/03/10 02:35:41;;;;;;;58.70;31.13;;;1.30;63.80;;;;;;4983596;28;20199;-79
2022/03/10 02:38:09;;;;;;;72.43;30.88;;;1.30;63.90;;;;;;4986446;28;20207;-79
2022/03/10 02:40:38;;;;;;;60.38;30.10;;;1.30;63.90;;;;;;4984185;28;20237;-78
2022/03/10 02:43:06;;;;;;;110.75;41.30;;;1.40;64.00;;;;;;4984741;28;20257;-78
2022/03/10 02:45:34;;;;;;;79.55;35.08;;;1.50;64.00;;;;;;4991031;28;20789;-83
2022/03/10 02:48:03;;;;;;;62.30;31.98;;;1.50;63.90;;;;;;4985084;28;20202;-83
2022/03/10 02:50:31;;;;;;;49.45;25.90;;;1.40;63.80;;;;;;5000825;28;20230;-83
2022/03/10 02:52:59;;;;;;;59.33;28.48;;;1.40;63.80;;;;;;4983818;28;20261;-82
2022/03/10 02:55:27;;;;;;;47.20;26.13;;;1.40;63.90;;;;;;4982678;28;20218;-83
2022/03/10 02:57:56;;;;;;;40.50;22.27;;;1.40;63.90;;;;;;4999630;28;20744;-82
2022/03/10 03:00:26;;;;;;;40.80;21.15;;;1.40;63.90;;;;;;4997584;28;20352;-82
2022/03/10 03:02:54;;;;;;;53.72;25.63;;;1.40;63.90;;;;;;4982070;28;20222;-82
2022/03/10 03:05:23;;;;;;;31.23;16.95;;;1.40;64.00;;;;;;4984756;28;20205;-83
2022/03/10 03:07:51;;;;;;;27.40;15.65;;;1.40;64.00;;;;;;4999792;28;20207;-83
2022/03/10 03:10:19;;;;;;;23.75;15.32;;;1.40;63.90;;;;;;4985239;28;20249;-83
2022/03/10 03:12:49;;;;;;;37.10;19.33;;;1.30;63.90;;;;;;4984168;28;20229;-82
2022/03/10 03:15:19;;;;;;;31.25;19.40;;;1.30;63.90;;;;;;4990013;28;20240;-82
2022/03/10 03:17:48;;;;;;;39.22;21.80;;;1.30;63.90;;;;;;4983309;28;20906;-81
2022/03/10 03:20:16;;;;;;;41.22;21.75;;;1.30;64.20;;;;;;4985085;28;20313;-82
2022/03/10 03:22:48;;;;;;;35.30;19.38;;;1.30;64.30;;;;;;4982318;28;20205;-81
2022/03/10 03:25:16;;;;;;;36.25;18.42;;;1.30;64.30;;;;;;4986741;28;20386;-81
2022/03/10 03:27:47;;;;;;;30.88;17.00;;;1.30;64.30;;;;;;4999542;28;20208;-81
2022/03/10 03:30:15;;;;;;;27.67;16.90;;;1.40;64.20;;;;;;4998219;28;20222;-80
2022/03/10 03:32:46;;;;;;;26.52;17.50;;;1.40;64.20;;;;;;4998450;28;20876;-81
2022/03/10 03:35:15;;;;;;;30.85;16.27;;;1.30;64.00;;;;;;4993882;28;20631;-80
2022/03/10 03:37:43;;;;;;;29.00;17.10;;;1.30;64.20;;;;;;4984529;28;20199;-82
2022/03/10 03:40:12;;;;;;;34.28;20.10;;;1.30;64.20;;;;;;4984624;28;20230;-82
2022/03/10 03:42:40;;;;;;;37.03;20.00;;;1.20;64.00;;;;;;4984321;28;20214;-82
2022/03/10 03:45:10;;;;;;;26.90;16.65;;;1.20;64.00;;;;;;4984701;28;20193;-82
2022/03/10 03:47:39;;;;;;;28.15;15.45;;;1.20;64.00;;;;;;4983779;28;20202;-80
2022/03/10 03:50:09;;;;;;;26.77;15.48;;;1.10;64.20;;;;;;4984801;28;20210;-79
2022/03/10 03:52:37;;;;;;;26.58;15.57;;;1.10;64.20;;;;;;4986352;28;20261;-81
2022/03/10 03:55:08;;;;;;;22.35;13.60;;;1.10;64.30;;;;;;4989632;28;20222;-82
2022/03/10 03:57:36;;;;;;;26.25;15.75;;;1.10;64.30;;;;;;5003419;28;20869;-81
2022/03/10 04:00:07;;;;;;;26.50;15.93;;;1.10;64.30;;;;;;5001864;28;20598;-81
2022/03/10 04:02:38;;;;;;;31.67;16.10;;;1.10;64.30;;;;;;4988142;28;20264;-81
2022/03/10 04:05:08;;;;;;;27.27;15.95;;;1.10;64.40;;;;;;4989958;28;20193;-81
2022/03/10 04:07:36;;;;;;;24.88;15.15;;;1.00;64.40;;;;;;4998619;28;20207;-82
2022/03/10 04:10:07;;;;;;;28.20;16.73;;;1.00;64.40;;;;;;4989857;28;20305;-80
2022/03/10 04:12:36;;;;;;;28.88;16.90;;;1.00;64.30;;;;;;4994771;28;20210;-82
2022/03/10 04:15:06;;;;;;;34.58;18.48;;;0.90;64.30;;;;;;5000934;28;20219;-81
2022/03/10 04:17:34;;;;;;;35.08;18.90;;;0.90;64.20;;;;;;5004651;28;20227;-80
2022/03/10 04:20:02;;;;;;;31.65;18.23;;;0.80;64.30;;;;;;4982936;28;20226;-81
2022/03/10 04:22:32;;;;;;;30.17;18.77;;;0.80;64.30;;;;;;5004050;28;20683;-80
2022/03/10 04:25:00;;;;;;;29.92;16.63;;;0.80;64.40;;;;;;4996086;28;20190;-81
2022/03/10 04:27:28;;;;;;;25.60;16.80;;;0.80;64.50;;;;;;5004461;28;20195;-80
2022/03/10 04:29:55;;;;;;;35.47;15.93;;;0.80;64.50;;;;;;4988184;28;20921;-80
2022/03/10 04:32:23;;;;;;;32.30;16.60;;;0.80;64.60;;;;;;4986913;28;20636;-81
2022/03/10 04:34:51;;;;;;;29.90;16.85;;;0.90;64.60;;;;;;4986168;28;20233;-81
2022/03/10 04:37:19;;;;;;;30.90;17.55;;;0.90;64.50;;;;;;4986029;28;20210;-81
2022/03/10 04:39:49;;;;;;;31.63;17.25;;;0.80;64.50;;;;;;4986505;28;20632;-81
2022/03/10 04:42:16;;;;;;;28.35;17.02;;;0.80;64.50;;;;;;4988209;28;20199;-82
2022/03/10 04:44:44;;;;;;;26.52;16.15;;;0.80;64.60;;;;;;4987018;28;20195;-81
2022/03/10 04:47:12;;;;;;;28.38;16.00;;;0.80;64.60;;;;;;4988098;28;20234;-82
2022/03/10 04:49:40;;;;;;;31.63;17.92;;;0.80;64.60;;;;;;4999896;28;20226;-81
2022/03/10 04:52:09;;;;;;;28.05;16.20;;;0.80;64.60;;;;;;4984379;28;20199;-80
2022/03/10 04:54:37;;;;;;;26.92;16.30;;;0.80;64.70;;;;;;5001457;28;20226;-80
2022/03/10 04:57:07;;;;;;;30.75;17.13;;;0.80;64.70;;;;;;4987489;28;20205;-80
2022/03/10 04:59:35;;;;;;;35.53;19.50;;;0.80;64.70;;;;;;5002641;28;20237;-79
2022/03/10 05:02:03;;;;;;;30.55;18.50;;;0.80;64.60;;;;;;4987618;28;21122;-81
2022/03/10 05:04:32;;;;;;;29.30;15.98;;;0.70;64.60;;;;;;5000889;28;20250;-81
2022/03/10 05:07:00;;;;;;;28.10;15.85;;;0.70;64.60;;;;;;4987150;28;20202;-81
2022/03/10 05:09:28;;;;;;;26.33;16.58;;;0.70;64.60;;;;;;4987090;28;20729;-82
2022/03/10 05:11:56;;;;;;;27.58;15.80;;;0.70;64.80;;;;;;4987471;28;20958;-81
2022/03/10 05:14:25;;;;;;;28.08;15.90;;;0.70;64.90;;;;;;4985017;28;20265;-80
2022/03/10 05:16:53;;;;;;;28.90;16.60;;;0.70;64.90;;;;;;5000950;28;20233;-80
2022/03/10 05:19:21;;;;;;;32.92;18.80;;;0.70;65.00;;;;;;4986758;28;20297;-79
2022/03/10 05:21:49;;;;;;;37.85;18.85;;;0.70;64.80;;;;;;5001365;28;20608;-80
2022/03/10 05:24:17;;;;;;;29.10;17.73;;;0.70;64.80;;;;;;5001182;28;20226;-81
2022/03/10 05:26:45;;;;;;;29.13;17.15;;;0.60;64.80;;;;;;5001559;28;20191;-81
2022/03/10 05:29:13;;;;;;;32.30;18.52;;;0.60;64.70;;;;;;4985686;28;20281;-81
2022/03/10 05:31:43;;;;;;;33.00;18.25;;;0.60;64.80;;;;;;4983349;28;20238;-80
2022/03/10 05:34:11;;;;;;;33.33;18.00;;;0.50;64.90;;;;;;5000113;28;20219;-82
2022/03/10 05:36:40;;;;;;;33.58;19.45;;;0.50;64.90;;;;;;4986810;28;20226;-79
2022/03/10 05:39:09;;;;;;;34.53;18.95;;;0.50;64.90;;;;;;5001474;28;20245;-81
2022/03/10 05:41:37;;;;;;;30.23;18.80;;;0.50;65.00;;;;;;4985340;28;20203;-82
2022/03/10 05:44:05;;;;;;;33.10;19.35;;;0.50;64.90;;;;;;5000824;28;20242;-81
2022/03/10 05:46:33;;;;;;;30.50;17.52;;;0.50;64.80;;;;;;4985755;28;20253;-81
2022/03/10 05:49:02;;;;;;;33.03;18.40;;;0.50;64.90;;;;;;4984970;28;20425;-82
2022/03/10 05:51:30;;;;;;;28.75;17.52;;;0.40;64.90;;;;;;5001265;28;20872;-82
2022/03/10 05:53:58;;;;;;;32.65;18.75;;;0.30;64.80;;;;;;4985758;28;20198;-81
2022/03/10 05:56:26;;;;;;;34.90;18.40;;;0.30;65.00;;;;;;4986575;28;20565;-82
2022/03/10 05:58:54;;;;;;;28.52;16.42;;;0.30;65.10;;;;;;4985376;28;20214;-81
2022/03/10 06:01:22;;;;;;;32.28;19.15;;;0.40;65.20;;;;;;4981622;28;20282;-82
2022/03/10 06:03:51;;;;;;;34.92;20.27;;;0.40;65.30;;;;;;4984840;28;20210;-81
2022/03/10 06:06:20;;;;;;;30.95;19.70;;;0.50;65.20;;;;;;4986521;28;20195;-81
2022/03/10 06:08:49;;;;;;;40.35;23.63;;;0.50;65.30;;;;;;4984791;28;20634;-81
2022/03/10 06:11:17;;;;;;;47.78;24.17;;;0.50;65.30;;;;;;5002092;28;20203;-81
2022/03/10 06:13:45;;;;;;;57.38;26.60;;;0.50;65.20;;;;;;4983868;28;20667;-81
2022/03/10 06:16:13;;;;;;;73.38;31.73;;;0.40;65.10;;;;;;4984983;28;20238;-83
2022/03/10 06:18:41;;;;;;;83.75;36.60;;;0.40;65.10;;;;;;4991067;28;20259;-82
2022/03/10 06:21:09;;;;;;;83.72;36.95;;;0.30;65.10;;;;;;4984741;28;20700;-82
2022/03/10 06:23:38;;;;;;;78.57;36.95;;;0.30;65.40;;;;;;4984119;28;20234;-82
2022/03/10 06:26:08;;;;;;;67.13;33.30;;;0.30;65.50;;;;;;5001144;28;20203;-82
2022/03/10 06:28:36;;;;;;;58.33;29.40;;;0.40;65.60;;;;;;4986346;28;20194;-82
2022/03/10 06:31:05;;;;;;;67.03;29.88;;;0.40;65.60;;;;;;5001233;28;20226;-82
2022/03/10 06:33:33;;;;;;;65.50;30.10;;;0.40;65.60;;;;;;4985818;28;20207;-82
2022/03/10 06:36:01;;;;;;;57.78;28.50;;;0.40;65.60;;;;;;4984745;28;20759;-81
2022/03/10 06:38:29;;;;;;;55.65;27.58;;;0.50;65.70;;;;;;4996495;28;20663;-82
2022/03/10 06:40:58;;;;;;;56.58;27.98;;;0.50;65.70;;;;;;5008189;28;20234;-82
2022/03/10 06:43:26;;;;;;;44.55;26.33;;;0.50;65.70;;;;;;4997988;28;20394;-80
2022/03/10 06:45:54;;;;;;;45.72;24.20;;;0.60;65.80;;;;;;4985295;28;20711;-82
2022/03/10 06:48:22;;;;;;;42.58;25.75;;;0.60;65.80;;;;;;4986436;28;20237;-82
2022/03/10 06:50:50;;;;;;;46.00;25.73;;;0.60;65.90;;;;;;4985405;28;20219;-82
2022/03/10 06:53:18;;;;;;;38.78;23.63;;;0.70;65.90;;;;;;5000153;28;20265;-81
2022/03/10 06:55:47;;;;;;;40.03;23.25;;;0.70;66.00;;;;;;4996085;28;20265;-83
2022/03/10 06:58:19;;;;;;;41.95;23.90;;;0.80;66.00;;;;;;4989976;28;20207;-81
2022/03/10 07:00:47;;;;;;;41.60;24.42;;;0.80;66.10;;;;;;4988410;28;20253;-82
2022/03/10 07:03:15;;;;;;;44.05;24.73;;;0.80;66.10;;;;;;4984015;28;20215;-81
2022/03/10 07:05:44;;;;;;;39.10;23.50;;;0.90;66.20;;;;;;4986447;28;20592;-82
2022/03/10 07:08:12;;;;;;;37.45;22.67;;;1.00;66.20;;;;;;4983659;28;20206;-82
2022/03/10 07:10:40;;;;;;;38.13;25.08;;;1.00;66.30;;;;;;4985682;28;20219;-81
2022/03/10 07:13:08;;;;;;;40.08;23.17;;;1.10;66.40;;;;;;4982651;28;20207;-82
2022/03/10 07:15:43;;;;;;;37.97;22.63;;;1.10;66.30;;;;;;4984846;28;20234;-81
2022/03/10 07:18:11;;;;;;;38.80;20.73;;;1.20;66.40;;;;;;4985056;28;20598;-81
2022/03/10 07:20:39;;;;;;;36.40;21.42;;;1.30;66.40;;;;;;4999937;28;20226;-81
2022/03/10 07:23:07;;;;;;;39.60;22.80;;;1.30;66.50;;;;;;4999489;28;20217;-81
2022/03/10 07:25:35;;;;;;;32.50;20.55;;;1.40;66.60;;;;;;4984993;28;20203;-82
2022/03/10 07:28:03;;;;;;;42.30;21.10;;;1.50;66.70;;;;;;4985558;28;20213;-80
2022/03/10 07:30:31;;;;;;;40.53;19.50;;;1.60;66.80;;;;;;4991336;28;20245;-81
2022/03/10 07:33:00;;;;;;;39.33;19.83;;;1.70;66.80;;;;;;4990992;28;20205;-81
2022/03/10 07:35:28;;;;;;;33.22;19.50;;;1.80;66.90;;;;;;5006937;28;20249;-82
2022/03/10 07:37:59;;;;;;;33.72;19.10;;;1.90;67.00;;;;;;4991656;28;20265;-81
2022/03/10 07:40:27;;;;;;;42.42;21.30;;;1.90;67.00;;;;;;4990987;28;20226;-81
2022/03/10 07:42:55;;;;;;;40.42;19.15;;;2.00;66.90;;;;;;4994712;28;20206;-82
2022/03/10 07:45:24;;;;;;;41.35;22.40;;;2.10;66.90;;;;;;4990698;28;20210;-81
2022/03/10 07:47:53;;;;;;;38.95;20.73;;;2.20;66.90;;;;;;4990668;28;20213;-83
2022/03/10 07:50:23;;;;;;;33.67;20.55;;;2.20;66.90;;;;;;4999194;28;20237;-82
2022/03/10 07:52:51;;;;;;;39.95;19.08;;;2.30;66.90;;;;;;4990478;28;20217;-83
2022/03/10 07:55:19;;;;;;;34.70;19.38;;;2.40;66.90;;;;;;4999747;28;20206;-83
2022/03/10 07:57:48;;;;;;;33.60;20.70;;;2.40;67.00;;;;;;4992467;28;20233;-82
2022/03/10 08:00:17;;;;;;;38.17;20.45;;;2.50;67.00;;;;;;5004038;28;20321;-81
2022/03/10 08:02:45;;;;;;;34.13;18.55;;;2.50;67.00;;;;;;5006081;28;20374;-81
2022/03/10 08:05:13;;;;;;;32.40;19.30;;;2.60;67.10;;;;;;5006245;28;20222;-79
2022/03/10 08:07:42;;;;;;;40.13;20.10;;;2.70;67.10;;;;;;4996214;28;20246;-81
2022/03/10 08:10:11;;;;;;;38.45;19.30;;;2.70;67.10;;;;;;4991976;28;20288;-82
2022/03/10 08:12:39;;;;;;;36.83;21.02;;;2.80;67.10;;;;;;4991263;28;20305;-81
2022/03/10 08:15:09;;;;;;;34.10;19.88;;;2.90;67.10;;;;;;4991678;28;20202;-81
2022/03/10 08:17:39;;;;;;;39.00;22.13;;;2.90;67.10;;;;;;4991864;28;20207;-82
2022/03/10 08:20:08;;;;;;;34.38;19.55;;;3.00;67.10;;;;;;4991903;28;20226;-81
2022/03/10 08:22:35;;;;;;;40.83;21.38;;;3.00;67.10;;;;;;4990815;28;20203;-81
2022/03/10 08:25:06;;;;;;;33.10;19.70;;;3.10;67.20;;;;;;4990079;28;20282;-82
2022/03/10 08:27:34;;;;;;;27.98;19.55;;;3.10;67.10;;;;;;5006894;28;20244;-81
2022/03/10 08:30:02;;;;;;;31.38;18.42;;;3.20;67.20;;;;;;4986675;28;20229;-82
2022/03/10 08:32:30;;;;;;;39.30;20.95;;;3.20;67.20;;;;;;4990899;28;20260;-82
2022/03/10 08:34:58;;;;;;;39.58;18.63;;;3.30;67.30;;;;;;4990729;28;20210;-82
2022/03/10 08:37:26;;;;;;;36.90;20.55;;;3.40;67.30;;;;;;4991643;28;20948;-82
2022/03/10 08:39:54;;;;;;;35.00;19.83;;;3.40;67.30;;;;;;4989043;28;20634;-81
2022/03/10 08:42:24;;;;;;;45.67;20.30;;;3.50;67.30;;;;;;4988823;28;20199;-82
2022/03/10 08:44:51;;;;;;;31.25;19.40;;;3.60;67.30;;;;;;4985105;28;20633;-83
2022/03/10 08:47:21;;;;;;;52.70;23.83;;;3.60;67.30;;;;;;5002953;28;20313;-81
2022/03/10 08:49:50;;;;;;;37.17;19.50;;;3.70;67.40;;;;;;4987757;28;20237;-81
2022/03/10 08:52:20;;;;;;;35.70;18.98;;;3.80;67.40;;;;;;4986246;28;20217;-81
2022/03/10 08:54:48;;;;;;;37.83;18.60;;;3.90;67.50;;;;;;4987264;28;20459;-83
2022/03/10 08:57:16;;;;;;;31.05;17.25;;;4.10;67.40;;;;;;5002411;28;20217;-82
2022/03/10 08:59:45;;;;;;;41.35;19.00;;;4.10;67.40;;;;;;5004334;28;20226;-81
2022/03/10 09:02:13;;;;;;;33.15;18.70;;;4.20;67.40;;;;;;4987992;28;20222;-82
2022/03/10 09:04:45;;;;;;;33.78;18.42;;;4.30;67.50;;;;;;4987360;28;20222;-81
2022/03/10 09:07:13;;;;;;;34.75;17.33;;;4.50;67.50;;;;;;5009064;28;20205;-80
2022/03/10 09:09:41;;;;;;;40.65;19.23;;;4.60;67.50;;;;;;4989001;28;20227;-83
2022/03/10 09:12:09;;;;;;;28.40;16.23;;;4.70;67.50;;;;;;4990485;28;20202;-81
2022/03/10 09:14:37;;;;;;;32.97;18.15;;;4.90;67.40;;;;;;4983906;28;20206;-81
2022/03/10 09:17:06;;;;;;;47.28;22.13;;;5.00;67.40;;;;;;4985845;28;20584;-81
2022/03/10 09:19:35;;;;;;;41.58;19.15;;;5.20;67.20;;;;;;4983621;28;21151;-81
2022/03/10 09:22:03;;;;;;;28.02;17.33;;;5.30;67.20;;;;;;4990931;28;20230;-82
2022/03/10 09:24:31;;;;;;;29.75;15.35;;;5.40;67.10;;;;;;4987827;28;20276;-84
2022/03/10 09:26:59;;;;;;;24.33;15.52;;;5.50;66.90;;;;;;4987052;28;20213;-83
2022/03/10 09:29:27;;;;;;;27.17;17.33;;;5.60;66.90;;;;;;4986898;28;20230;-81
2022/03/10 09:31:55;;;;;;;27.77;15.50;;;5.70;66.80;;;;;;5002994;28;20719;-82
2022/03/10 09:34:25;;;;;;;24.25;15.30;;;5.80;66.40;;;;;;4987784;28;20730;-83
2022/03/10 09:36:53;;;;;;;25.08;15.30;;;5.80;66.40;;;;;;4991873;28;20226;-82
2022/03/10 09:39:21;;;;;;;27.80;17.17;;;5.90;66.20;;;;;;4984611;28;20227;-82
2022/03/10 09:41:49;;;;;;;26.85;15.52;;;6.00;66.20;;;;;;4990723;28;20226;-82
2022/03/10 09:44:19;;;;;;;23.35;14.85;;;6.10;66.00;;;;;;5004778;28;20293;-81
2022/03/10 09:46:50;;;;;;;24.80;16.15;;;6.10;65.60;;;;;;4989162;28;20234;-83
2022/03/10 09:49:20;;;;;;;28.42;14.93;;;6.20;65.70;;;;;;4987000;28;20226;-83
2022/03/10 09:51:50;;;;;;;26.02;14.93;;;6.30;65.70;;;;;;4988873;28;20191;-82
2022/03/10 09:54:18;;;;;;;32.28;16.23;;;6.40;65.50;;;;;;4991520;28;20206;-82
2022/03/10 09:56:46;;;;;;;25.77;15.82;;;6.50;65.50;;;;;;4994340;28;20226;-82
2022/03/10 09:59:14;;;;;;;25.17;14.55;;;6.50;65.30;;;;;;5004672;28;20230;-82
2022/03/10 10:01:42;;;;;;;24.02;14.43;;;6.60;65.10;;;;;;4985893;28;20229;-82
2022/03/10 10:04:10;;;;;;;22.23;14.90;;;6.60;65.00;;;;;;5003638;28;20999;-82
2022/03/10 10:07:05;;;;;;;40.78;19.65;;;6.70;64.90;;;;;;4993536;28;20238;-82
2022/03/10 10:09:44;;;;;;;26.88;15.10;;;6.80;64.20;;;;;;4986486;28;20222;-82
2022/03/10 10:12:13;;;;;;;28.90;16.02;;;6.90;64.50;;;;;;4981509;28;20614;-81
2022/03/10 10:14:46;;;;;;;26.45;15.80;;;7.00;64.40;;;;;;4986752;28;20207;-82
2022/03/10 10:17:14;;;;;;;30.33;16.10;;;7.10;64.20;;;;;;4992978;28;20784;-82
2022/03/10 10:19:44;;;;;;;26.75;15.27;;;7.10;64.20;;;;;;4985919;28;20568;-81
2022/03/10 10:22:33;;;;;;;26.60;14.48;;;7.20;63.90;;;;;;4979026;28;20207;-82
2022/03/10 10:25:05;;;;;;;28.53;16.23;;;7.30;63.80;;;;;;4986848;28;20885;-81
2022/03/10 10:27:35;;;;;;;47.50;19.83;;;7.40;63.70;;;;;;4983795;28;20470;-83
2022/03/10 10:30:05;;;;;;;25.48;15.50;;;7.50;63.60;;;;;;4979303;28;20473;-81
2022/03/10 10:32:35;;;;;;;30.95;15.48;;;7.50;63.20;;;;;;5001608;28;20593;-83
2022/03/10 10:35:06;;;;;;;21.85;14.90;;;7.60;63.20;;;;;;4986425;28;20291;-82
2022/03/10 10:37:37;;;;;;;25.53;15.37;;;7.70;62.80;;;;;;4986815;28;20775;-83
2022/03/10 10:40:09;;;;;;;23.70;14.32;;;7.80;62.80;;;;;;4992697;28;20528;-83
2022/03/10 10:42:39;;;;;;;25.52;15.80;;;7.90;62.70;;;;;;4999231;28;20211;-82
2022/03/10 10:45:29;;;;;;;23.57;13.50;;;7.90;62.60;;;;;;5002392;28;20714;-82
2022/03/10 10:47:59;;;;;;;30.50;16.87;;;8.00;62.30;;;;;;5001931;28;21038;-82
2022/03/10 10:50:29;;;;;;;27.83;14.53;;;8.10;62.20;;;;;;5001677;28;20912;-81
2022/03/10 10:52:59;;;;;;;24.97;14.53;;;8.20;62.00;;;;;;5000810;28;20450;-82
2022/03/10 10:55:35;;;;;;;24.43;14.07;;;8.30;61.70;;;;;;4997145;28;20971;-81
2022/03/10 10:58:10;;;;;;;22.93;13.40;;;8.40;61.30;;;;;;4982839;28;20473;-82
2022/03/10 11:00:43;;;;;;;35.77;17.07;;;8.60;61.50;;;;;;5001154;28;20469;-83
2022/03/10 11:03:22;;;;;;;25.80;14.33;;;8.70;61.30;;;;;;4999794;28;20462;-81
2022/03/10 11:05:51;;;;;;;23.03;13.60;;;8.70;60.80;;;;;;4985076;28;21469;-82
2022/03/10 11:08:21;;;;;;;23.10;13.67;;;8.80;60.80;;;;;;4986286;28;20456;-82
2022/03/10 11:10:50;;;;;;;20.17;13.60;;;8.90;60.50;;;;;;4985326;28;20482;-82
2022/03/10 11:13:22;;;;;;;18.20;12.33;;;9.00;60.20;;;;;;4980590;28;20461;-82
2022/03/10 11:15:53;;;;;;;22.10;13.57;;;9.10;60.20;;;;;;4985816;28;20465;-82
2022/03/10 11:18:23;;;;;;;33.97;16.60;;;9.20;60.10;;;;;;4978637;28;20478;-82
2022/03/10 11:20:58;;;;;;;20.13;12.13;;;9.20;60.00;;;;;;4984601;28;20505;-82
2022/03/10 11:23:38;;;;;;;21.43;12.70;;;9.30;59.70;;;;;;4983713;28;20870;-82
2022/03/10 11:26:12;;;;;;;24.57;13.00;;;9.40;59.30;;;;;;4983778;28;21123;-82
2022/03/10 11:28:45;;;;;;;21.80;12.90;;;9.50;59.10;;;;;;4999876;28;20806;-81
2022/03/10 11:31:14;;;;;;;22.93;13.07;;;9.60;58.60;;;;;;5001501;28;20951;-81
2022/03/10 11:33:44;;;;;;;21.33;12.20;;;9.70;58.10;;;;;;5000410;28;20450;-82
2022/03/10 11:36:23;;;;;;;23.43;12.63;;;9.80;58.40;;;;;;4986995;28;20525;-82
2022/03/10 11:38:54;;;;;;;21.67;13.90;;;9.80;58.30;;;;;;4985114;28;20465;-82
2022/03/10 11:41:25;;;;;;;17.33;10.90;;;9.90;57.80;;;;;;4985288;28;21077;-82
2022/03/10 11:43:59;;;;;;;22.53;12.13;;;10.00;57.50;;;;;;4984315;28;20466;-81
2022/03/10 11:46:28;;;;;;;21.17;10.93;;;10.10;57.30;;;;;;4985935;28;20473;-81
2022/03/10 11:49:09;;;;;;;18.50;11.47;;;10.10;57.20;;;;;;4984835;28;20466;-81
2022/03/10 11:51:45;;;;;;;22.07;11.50;;;10.20;56.80;;;;;;4984277;28;20465;-81
2022/03/10 11:54:20;;;;;;;16.00;9.93;;;10.30;56.80;;;;;;4985741;28;20442;-80
2022/03/10 11:57:07;;;;;;;18.93;12.17;;;10.30;56.70;;;;;;4999493;28;20469;-80
2022/03/10 11:59:49;;;;;;;19.63;11.30;;;10.40;56.60;;;;;;4986365;28;20496;-82
2022/03/10 12:02:40;;;;;;;16.83;10.97;;;10.40;56.10;;;;;;4979989;28;20485;-82
2022/03/10 12:05:09;;;;;;;19.47;10.70;;;10.50;55.40;;;;;;4993465;28;20458;-82
2022/03/10 12:07:42;;;;;;;17.70;10.77;;;10.60;56.00;;;;;;4990531;28;21277;-80
2022/03/10 12:10:14;;;;;;;17.60;10.87;;;10.70;55.70;;;;;;4985940;28;21202;-81
2022/03/10 12:12:45;;;;;;;19.80;10.90;;;10.70;55.40;;;;;;5000095;28;20541;-81
2022/03/10 12:15:49;;;;;;;18.03;11.13;;;10.80;55.30;;;;;;4986688;28;20465;-82
2022/03/10 12:18:24;;;;;;;20.20;12.00;;;10.90;54.60;;;;;;4989858;28;20474;-82
2022/03/10 12:20:57;;;;;;;19.90;11.73;;;10.90;54.70;;;;;;4987754;28;20481;-82
2022/03/10 12:23:32;;;;;;;21.20;12.03;;;10.90;54.90;;;;;;4988775;28;20491;-82
2022/03/10 12:26:09;;;;;;;16.20;10.43;;;11.00;54.40;;;;;;4989110;28;20834;-82
2022/03/10 12:28:39;;;;;;;19.10;12.23;;;11.00;54.30;;;;;;4996935;28;20472;-81
2022/03/10 12:31:12;;;;;;;18.73;10.30;;;11.10;53.80;;;;;;4987528;28;20473;-81
2022/03/10 12:33:59;;;;;;;14.70;9.67;;;11.20;53.90;;;;;;5002888;28;21197;-79
2022/03/10 12:36:30;;;;;;;16.10;10.40;;;11.30;53.70;;;;;;5003549;28;20460;-82
2022/03/10 12:39:00;;;;;;;16.37;9.97;;;11.30;53.60;;;;;;4995551;28;20477;-81
2022/03/10 12:41:37;;;;;;;22.07;11.77;;;11.30;53.70;;;;;;5004497;28;20461;-80
2022/03/10 12:44:07;;;;;;;22.03;9.93;;;11.30;53.30;;;;;;4986192;28;20453;-80
2022/03/10 12:46:37;;;;;;;17.87;10.90;;;11.30;53.60;;;;;;4988701;28;20482;-80
2022/03/10 12:49:12;;;;;;;16.80;10.37;;;11.40;52.80;;;;;;4985591;28;20605;-81
2022/03/10 12:51:40;;;;;;;27.80;10.97;;;11.40;53.00;;;;;;5003666;28;20472;-81
2022/03/10 12:54:14;;;;;;;24.90;15.33;;;11.50;52.90;;;;;;5003324;28;20446;-81